Metar condition report not uploaded to Weather Underground

I just upgraded to 9.54 from 9.47d, and it is not be sending the correct conditions data to Weather Underground. I’ve configured WD to take the conditions report from the metar report for KBED (nearby Hanscom Field). The conditions report on my web page is correct. Here’s a metar report:

Bedford, Hanscom Field, MA, United States (KBED) 42-28-06N 071-17-40W 50M
Feb 07, 2003 - 09:56 AM EST / 2003.02.07 1456 UTC
Wind: Calm:0
Visibility: 1/2 mile(s):0
Sky conditions: obscured
Weather: snow; freezing fog
Precipitation last hour: 0.04 inches
Temperature: 25.0 F (-3.9 C)
Dew Point: 25.0 F (-3.9 C)
Relative Humidity: 100%
Pressure (altimeter): 29.92 in. Hg (1013 hPa)
Pressure tendency: 0.12 inches (3.9 hPa) lower than three hours ago
ob: KBED 071456Z 00000KT 1/2SM SN FZFG VV006 M04/M04 A2992 RMK AO2 TSB34E35 SLP148 P0004 60008 T10391039 58039
cycle: 15

but the conditions data uploaded to Weather Underground is CLR CLR (the temp, barometer, and humidity uploaded are correct). This was working correctly in 9.47d.